sensor_id;sensor_type;location;lat;lon;timestamp;pressure;altitude;pressure_sealevel;temperature;humidity
59063;BME280;44851;45.648;9.004;2023-04-12T00:01:01;98515.94;;;13.89;55.72
59063;BME280;44851;45.648;9.004;2023-04-12T00:03:27;98510.66;;;13.66;56.11
59063;BME280;44851;45.648;9.004;2023-04-12T00:05:53;98510.44;;;13.76;56.98
59063;BME280;44851;45.648;9.004;2023-04-12T00:08:19;98506.94;;;13.83;56.29
59063;BME280;44851;45.648;9.004;2023-04-12T00:10:50;98497.69;;;13.95;56.56
59063;BME280;44851;45.648;9.004;2023-04-12T00:13:16;98492.34;;;13.89;55.58
59063;BME280;44851;45.648;9.004;2023-04-12T00:15:41;98480.00;;;13.74;56.53
59063;BME280;44851;45.648;9.004;2023-04-12T00:18:07;98477.22;;;13.76;56.51
59063;BME280;44851;45.648;9.004;2023-04-12T00:20:32;98466.53;;;13.78;56.13
59063;BME280;44851;45.648;9.004;2023-04-12T00:22:58;98472.31;;;13.73;56.92
59063;BME280;44851;45.648;9.004;2023-04-12T00:25:23;98464.84;;;13.62;56.63
59063;BME280;44851;45.648;9.004;2023-04-12T00:27:49;98460.22;;;13.64;56.93
59063;BME280;44851;45.648;9.004;2023-04-12T00:30:14;98457.66;;;13.56;56.33
59063;BME280;44851;45.648;9.004;2023-04-12T00:32:41;98460.97;;;13.50;56.67
59063;BME280;44851;45.648;9.004;2023-04-12T00:35:07;98459.75;;;13.29;57.00
59063;BME280;44851;45.648;9.004;2023-04-12T00:37:32;98457.28;;;13.36;57.52
59063;BME280;44851;45.648;9.004;2023-04-12T00:40:00;98460.69;;;13.44;57.89
59063;BME280;44851;45.648;9.004;2023-04-12T00:42:26;98455.44;;;13.44;57.01
59063;BME280;44851;45.648;9.004;2023-04-12T00:44:52;98461.75;;;13.19;56.63
59063;BME280;44851;45.648;9.004;2023-04-12T00:47:17;98457.81;;;13.23;57.78
59063;BME280;44851;45.648;9.004;2023-04-12T00:49:43;98459.75;;;13.29;57.91
59063;BME280;44851;45.648;9.004;2023-04-12T00:52:10;98463.50;;;13.35;57.92
59063;BME280;44851;45.648;9.004;2023-04-12T00:54:39;98462.69;;;13.34;57.63
59063;BME280;44851;45.648;9.004;2023-04-12T00:57:05;98459.81;;;13.13;57.36
59063;BME280;44851;45.648;9.004;2023-04-12T00:59:30;98453.25;;;13.09;58.04
59063;BME280;44851;45.648;9.004;2023-04-12T01:01:56;98455.84;;;13.25;57.94
59063;BME280;44851;45.648;9.004;2023-04-12T01:04:24;98466.91;;;13.35;57.39
59063;BME280;44851;45.648;9.004;2023-04-12T01:12:24;98464.34;;;13.27;57.10
59063;BME280;44851;45.648;9.004;2023-04-12T01:14:57;98462.03;;;13.32;56.75
59063;BME280;44851;45.648;9.004;2023-04-12T01:17:29;98455.88;;;13.09;57.73
59063;BME280;44851;45.648;9.004;2023-04-12T01:20:06;98456.06;;;12.99;56.38
59063;BME280;44851;45.648;9.004;2023-04-12T01:28:15;98470.94;;;12.99;57.79
59063;BME280;44851;45.648;9.004;2023-04-12T01:30:45;98476.03;;;13.00;56.86
59063;BME280;44851;45.648;9.004;2023-04-12T01:33:11;98486.28;;;13.10;56.78
59063;BME280;44851;45.648;9.004;2023-04-12T01:35:38;98480.59;;;12.98;55.89
59063;BME280;44851;45.648;9.004;2023-04-12T01:38:05;98474.53;;;12.98;55.73
59063;BME280;44851;45.648;9.004;2023-04-12T01:40:31;98473.59;;;12.82;56.39
59063;BME280;44851;45.648;9.004;2023-04-12T01:43:12;98474.41;;;12.83;57.41
59063;BME280;44851;45.648;9.004;2023-04-12T01:45:38;98489.09;;;12.84;58.15
59063;BME280;44851;45.648;9.004;2023-04-12T01:48:07;98482.13;;;12.68;57.20
59063;BME280;44851;45.648;9.004;2023-04-12T01:50:55;98477.69;;;12.77;57.34
59063;BME280;44851;45.648;9.004;2023-04-12T01:53:34;98471.84;;;12.58;57.41
59063;BME280;44851;45.648;9.004;2023-04-12T01:56:06;98470.03;;;12.59;57.78
59063;BME280;44851;45.648;9.004;2023-04-12T01:58:32;98472.00;;;12.40;57.64
59063;BME280;44851;45.648;9.004;2023-04-12T02:01:00;98468.59;;;12.48;59.00
59063;BME280;44851;45.648;9.004;2023-04-12T02:03:27;98458.94;;;12.32;58.06
59063;BME280;44851;45.648;9.004;2023-04-12T02:05:56;98456.50;;;12.31;58.56
59063;BME280;44851;45.648;9.004;2023-04-12T02:08:23;98456.31;;;12.40;59.66
59063;BME280;44851;45.648;9.004;2023-04-12T02:10:49;98454.03;;;12.46;58.83
59063;BME280;44851;45.648;9.004;2023-04-12T02:13:15;98452.75;;;12.33;58.88
59063;BME280;44851;45.648;9.004;2023-04-12T02:15:42;98457.47;;;12.38;59.90
59063;BME280;44851;45.648;9.004;2023-04-12T02:18:08;98460.59;;;12.41;59.67
59063;BME280;44851;45.648;9.004;2023-04-12T02:20:33;98452.41;;;12.28;59.78
59063;BME280;44851;45.648;9.004;2023-04-12T02:22:59;98458.59;;;12.52;60.06
59063;BME280;44851;45.648;9.004;2023-04-12T02:25:25;98455.34;;;12.58;59.41
59063;BME280;44851;45.648;9.004;2023-04-12T02:27:51;98448.16;;;12.60;59.20
59063;BME280;44851;45.648;9.004;2023-04-12T02:30:17;98445.06;;;12.40;59.66
59063;BME280;44851;45.648;9.004;2023-04-12T02:32:44;98443.56;;;12.46;59.29
59063;BME280;44851;45.648;9.004;2023-04-12T02:35:14;98447.00;;;12.46;59.84
59063;BME280;44851;45.648;9.004;2023-04-12T02:37:43;98448.81;;;12.46;59.41
59063;BME280;44851;45.648;9.004;2023-04-12T02:40:11;98446.19;;;12.54;60.43
59063;BME280;44851;45.648;9.004;2023-04-12T02:42:37;98452.41;;;12.53;60.32
59063;BME280;44851;45.648;9.004;2023-04-12T02:45:03;98456.28;;;12.73;60.85
59063;BME280;44851;45.648;9.004;2023-04-12T02:47:29;98461.84;;;12.70;60.25
59063;BME280;44851;45.648;9.004;2023-04-12T02:49:55;98461.53;;;12.65;60.80
59063;BME280;44851;45.648;9.004;2023-04-12T02:52:20;98456.94;;;12.67;60.14
59063;BME280;44851;45.648;9.004;2023-04-12T02:54:48;98461.69;;;12.80;60.79
59063;BME280;44851;45.648;9.004;2023-04-12T02:57:13;98468.53;;;12.81;59.95
59063;BME280;44851;45.648;9.004;2023-04-12T02:59:40;98468.34;;;12.90;60.64
59063;BME280;44851;45.648;9.004;2023-04-12T03:02:06;98464.31;;;12.72;59.59
59063;BME280;44851;45.648;9.004;2023-04-12T03:04:32;98475.06;;;12.85;61.19
59063;BME280;44851;45.648;9.004;2023-04-12T03:06:57;98478.81;;;12.90;60.98
59063;BME280;44851;45.648;9.004;2023-04-12T03:09:23;98473.25;;;12.93;60.66
59063;BME280;44851;45.648;9.004;2023-04-12T03:11:49;98465.88;;;12.97;60.71
59063;BME280;44851;45.648;9.004;2023-04-12T03:14:15;98466.88;;;12.96;60.28
59063;BME280;44851;45.648;9.004;2023-04-12T03:16:40;98468.19;;;13.00;60.95
59063;BME280;44851;45.648;9.004;2023-04-12T03:19:05;98469.63;;;12.94;60.55
59063;BME280;44851;45.648;9.004;2023-04-12T03:21:31;98467.53;;;12.90;61.49
59063;BME280;44851;45.648;9.004;2023-04-12T03:23:59;98462.81;;;12.77;61.08
59063;BME280;44851;45.648;9.004;2023-04-12T03:26:25;98441.44;;;12.74;60.51
59063;BME280;44851;45.648;9.004;2023-04-12T03:28:59;98434.41;;;12.66;60.21
59063;BME280;44851;45.648;9.004;2023-04-12T03:31:25;98432.13;;;12.63;61.32
59063;BME280;44851;45.648;9.004;2023-04-12T03:33:52;98426.25;;;12.61;61.51
59063;BME280;44851;45.648;9.004;2023-04-12T03:36:18;98416.94;;;12.50;61.98
59063;BME280;44851;45.648;9.004;2023-04-12T03:38:45;98424.00;;;12.41;62.26
59063;BME280;44851;45.648;9.004;2023-04-12T03:41:10;98430.16;;;12.57;61.99
59063;BME280;44851;45.648;9.004;2023-04-12T03:43:36;98443.72;;;12.68;62.12
59063;BME280;44851;45.648;9.004;2023-04-12T03:46:02;98440.91;;;12.86;62.30
59063;BME280;44851;45.648;9.004;2023-04-12T03:48:28;98444.53;;;12.69;61.90
59063;BME280;44851;45.648;9.004;2023-04-12T03:50:53;98446.81;;;12.72;61.87
59063;BME280;44851;45.648;9.004;2023-04-12T03:53:19;98439.63;;;12.66;62.40
59063;BME280;44851;45.648;9.004;2023-04-12T03:55:45;98430.47;;;12.62;62.34
59063;BME280;44851;45.648;9.004;2023-04-12T03:58:11;98429.19;;;12.50;62.74
59063;BME280;44851;45.648;9.004;2023-04-12T04:00:37;98443.91;;;12.59;62.96
59063;BME280;44851;45.648;9.004;2023-04-12T04:03:03;98445.22;;;12.63;63.29
59063;BME280;44851;45.648;9.004;2023-04-12T04:05:30;98453.84;;;12.72;62.56
59063;BME280;44851;45.648;9.004;2023-04-12T04:07:56;98446.84;;;12.64;61.85
59063;BME280;44851;45.648;9.004;2023-04-12T04:10:26;98436.03;;;12.67;62.40
59063;BME280;44851;45.648;9.004;2023-04-12T04:12:52;98427.06;;;12.61;62.53
59063;BME280;44851;45.648;9.004;2023-04-12T04:15:17;98435.56;;;12.63;63.06
59063;BME280;44851;45.648;9.004;2023-04-12T04:17:43;98429.53;;;12.63;62.73
59063;BME280;44851;45.648;9.004;2023-04-12T04:20:09;98436.38;;;12.64;62.96
59063;BME280;44851;45.648;9.004;2023-04-12T04:22:36;98431.31;;;12.54;61.83
59063;BME280;44851;45.648;9.004;2023-04-12T04:25:02;98433.00;;;12.31;61.94
59063;BME280;44851;45.648;9.004;2023-04-12T04:27:28;98432.16;;;12.22;58.79
59063;BME280;44851;45.648;9.004;2023-04-12T04:29:54;98436.56;;;12.13;57.96
59063;BME280;44851;45.648;9.004;2023-04-12T04:32:23;98436.56;;;12.05;56.06
59063;BME280;44851;45.648;9.004;2023-04-12T04:34:49;98437.06;;;12.17;55.10
59063;BME280;44851;45.648;9.004;2023-04-12T04:37:15;98447.50;;;12.17;54.74
59063;BME280;44851;45.648;9.004;2023-04-12T04:39:43;98447.19;;;12.28;55.47
59063;BME280;44851;45.648;9.004;2023-04-12T04:42:08;98448.50;;;12.32;55.18
59063;BME280;44851;45.648;9.004;2023-04-12T04:44:33;98435.59;;;12.23;54.27
59063;BME280;44851;45.648;9.004;2023-04-12T04:47:00;98441.97;;;12.12;54.57
59063;BME280;44851;45.648;9.004;2023-04-12T04:49:25;98451.44;;;12.37;54.51
59063;BME280;44851;45.648;9.004;2023-04-12T04:51:51;98457.97;;;12.50;55.00
59063;BME280;44851;45.648;9.004;2023-04-12T04:54:16;98451.75;;;12.42;54.78
59063;BME280;44851;45.648;9.004;2023-04-12T04:56:42;98446.50;;;12.51;54.36
59063;BME280;44851;45.648;9.004;2023-04-12T04:59:07;98449.16;;;12.42;54.99
59063;BME280;44851;45.648;9.004;2023-04-12T05:01:33;98453.06;;;12.55;55.57
59063;BME280;44851;45.648;9.004;2023-04-12T05:04:00;98462.19;;;12.51;55.78
59063;BME280;44851;45.648;9.004;2023-04-12T05:06:25;98459.59;;;12.51;56.62
59063;BME280;44851;45.648;9.004;2023-04-12T05:08:51;98469.06;;;12.52;56.64
59063;BME280;44851;45.648;9.004;2023-04-12T05:11:17;98463.22;;;12.41;55.09
59063;BME280;44851;45.648;9.004;2023-04-12T05:13:42;98462.34;;;12.41;53.74
59063;BME280;44851;45.648;9.004;2023-04-12T05:16:08;98462.22;;;12.34;52.45
59063;BME280;44851;45.648;9.004;2023-04-12T05:18:34;98456.81;;;12.36;52.81
59063;BME280;44851;45.648;9.004;2023-04-12T05:21:03;98454.69;;;12.39;52.71
59063;BME280;44851;45.648;9.004;2023-04-12T05:23:34;98455.03;;;12.53;52.15
59063;BME280;44851;45.648;9.004;2023-04-12T05:26:01;98451.59;;;12.52;50.89
59063;BME280;44851;45.648;9.004;2023-04-12T05:28:26;98451.44;;;12.37;51.09
59063;BME280;44851;45.648;9.004;2023-04-12T05:30:51;98452.56;;;12.43;51.05
59063;BME280;44851;45.648;9.004;2023-04-12T05:33:17;98462.22;;;12.42;50.99
59063;BME280;44851;45.648;9.004;2023-04-12T05:35:42;98457.97;;;12.58;51.92
59063;BME280;44851;45.648;9.004;2023-04-12T05:38:08;98464.78;;;12.67;51.15
59063;BME280;44851;45.648;9.004;2023-04-12T05:40:33;98460.56;;;12.66;52.07
59063;BME280;44851;45.648;9.004;2023-04-12T05:43:00;98454.69;;;12.64;51.50
59063;BME280;44851;45.648;9.004;2023-04-12T05:45:27;98460.06;;;12.79;52.44
59063;BME280;44851;45.648;9.004;2023-04-12T05:47:53;98463.81;;;12.84;51.30
59063;BME280;44851;45.648;9.004;2023-04-12T05:50:19;98470.81;;;12.92;51.75
59063;BME280;44851;45.648;9.004;2023-04-12T05:52:45;98478.31;;;12.87;51.16
59063;BME280;44851;45.648;9.004;2023-04-12T05:55:13;98475.72;;;12.95;51.71
59063;BME280;44851;45.648;9.004;2023-04-12T05:57:39;98468.50;;;12.97;51.62
59063;BME280;44851;45.648;9.004;2023-04-12T06:00:05;98470.00;;;12.83;49.98
59063;BME280;44851;45.648;9.004;2023-04-12T06:02:43;98468.19;;;13.00;51.49
59063;BME280;44851;45.648;9.004;2023-04-12T06:05:09;98473.72;;;12.97;50.59
59063;BME280;44851;45.648;9.004;2023-04-12T06:07:36;98476.53;;;12.87;48.79
59063;BME280;44851;45.648;9.004;2023-04-12T06:10:03;98478.47;;;13.02;50.12
59063;BME280;44851;45.648;9.004;2023-04-12T06:12:29;98476.53;;;12.95;48.88
59063;BME280;44851;45.648;9.004;2023-04-12T06:14:55;98471.13;;;12.89;48.28
59063;BME280;44851;45.648;9.004;2023-04-12T06:17:20;98480.94;;;12.95;49.03
59063;BME280;44851;45.648;9.004;2023-04-12T06:19:46;98477.16;;;13.06;49.67
59063;BME280;44851;45.648;9.004;2023-04-12T06:22:11;98482.38;;;13.06;48.95
59063;BME280;44851;45.648;9.004;2023-04-12T06:24:37;98482.38;;;13.14;49.63
59063;BME280;44851;45.648;9.004;2023-04-12T06:27:02;98479.91;;;13.20;51.08
59063;BME280;44851;45.648;9.004;2023-04-12T06:29:27;98480.72;;;13.21;51.03
59063;BME280;44851;45.648;9.004;2023-04-12T06:31:53;98482.03;;;13.09;48.83
59063;BME280;44851;45.648;9.004;2023-04-12T06:34:18;98473.72;;;12.97;47.49
59063;BME280;44851;45.648;9.004;2023-04-12T06:36:44;98467.66;;;13.13;48.96
59063;BME280;44851;45.648;9.004;2023-04-12T06:39:12;98467.34;;;13.00;48.37
59063;BME280;44851;45.648;9.004;2023-04-12T06:41:38;98467.31;;;13.08;48.79
59063;BME280;44851;45.648;9.004;2023-04-12T06:44:03;98465.84;;;13.05;47.93
59063;BME280;44851;45.648;9.004;2023-04-12T06:46:30;98478.13;;;13.13;48.82
59063;BME280;44851;45.648;9.004;2023-04-12T06:48:55;98477.78;;;13.00;47.83
59063;BME280;44851;45.648;9.004;2023-04-12T06:51:21;98472.56;;;13.08;48.68
59063;BME280;44851;45.648;9.004;2023-04-12T06:53:46;98471.91;;;13.22;48.08
59063;BME280;44851;45.648;9.004;2023-04-12T06:56:12;98466.19;;;13.18;47.79
59063;BME280;44851;45.648;9.004;2023-04-12T06:58:37;98465.97;;;13.28;48.25
59063;BME280;44851;45.648;9.004;2023-04-12T07:01:07;98463.31;;;13.36;47.29
59063;BME280;44851;45.648;9.004;2023-04-12T07:03:33;98463.25;;;13.53;47.65
59063;BME280;44851;45.648;9.004;2023-04-12T07:05:59;98453.66;;;13.37;47.27
59063;BME280;44851;45.648;9.004;2023-04-12T07:08:27;98457.66;;;13.56;47.61
59063;BME280;44851;45.648;9.004;2023-04-12T07:10:53;98451.81;;;13.45;46.35
59063;BME280;44851;45.648;9.004;2023-04-12T07:13:19;98440.47;;;13.61;46.52
59063;BME280;44851;45.648;9.004;2023-04-12T07:15:44;98444.88;;;13.61;46.61
59063;BME280;44851;45.648;9.004;2023-04-12T07:18:10;98451.88;;;13.68;46.35
59063;BME280;44851;45.648;9.004;2023-04-12T07:20:36;98445.00;;;13.67;47.43
59063;BME280;44851;45.648;9.004;2023-04-12T07:23:01;98452.69;;;13.69;46.65
59063;BME280;44851;45.648;9.004;2023-04-12T07:25:26;98453.66;;;13.68;45.49
59063;BME280;44851;45.648;9.004;2023-04-12T07:27:52;98456.47;;;13.66;46.28
59063;BME280;44851;45.648;9.004;2023-04-12T07:30:17;98456.97;;;13.62;45.20
59063;BME280;44851;45.648;9.004;2023-04-12T07:32:43;98456.06;;;13.78;42.96
59063;BME280;44851;45.648;9.004;2023-04-12T07:35:08;98443.88;;;13.31;44.83
59063;BME280;44851;45.648;9.004;2023-04-12T07:37:34;98441.06;;;13.40;44.76
59063;BME280;44851;45.648;9.004;2023-04-12T07:40:00;98445.09;;;13.51;44.39
59063;BME280;44851;45.648;9.004;2023-04-12T07:42:26;98442.84;;;13.40;44.89
59063;BME280;44851;45.648;9.004;2023-04-12T07:44:51;98436.03;;;13.62;45.37
59063;BME280;44851;45.648;9.004;2023-04-12T07:47:16;98446.16;;;13.65;44.66
59063;BME280;44851;45.648;9.004;2023-04-12T07:49:42;98441.16;;;13.78;44.41
59063;BME280;44851;45.648;9.004;2023-04-12T07:52:07;98447.72;;;13.74;43.43
59063;BME280;44851;45.648;9.004;2023-04-12T07:54:33;98450.84;;;13.78;42.56
59063;BME280;44851;45.648;9.004;2023-04-12T07:56:59;98442.94;;;13.86;43.80
59063;BME280;44851;45.648;9.004;2023-04-12T07:59:25;98454.56;;;13.83;43.53
59063;BME280;44851;45.648;9.004;2023-04-12T08:01:51;98464.34;;;13.89;43.06
59063;BME280;44851;45.648;9.004;2023-04-12T08:04:16;98457.03;;;14.08;43.96
59063;BME280;44851;45.648;9.004;2023-04-12T08:06:42;98454.22;;;14.32;42.28
59063;BME280;44851;45.648;9.004;2023-04-12T08:09:07;98457.81;;;14.54;41.84
59063;BME280;44851;45.648;9.004;2023-04-12T08:11:33;98466.09;;;14.66;42.22
59063;BME280;44851;45.648;9.004;2023-04-12T08:14:00;98462.81;;;14.64;40.68
59063;BME280;44851;45.648;9.004;2023-04-12T08:16:25;98459.94;;;14.73;40.81
59063;BME280;44851;45.648;9.004;2023-04-12T08:18:51;98459.69;;;14.83;42.58
59063;BME280;44851;45.648;9.004;2023-04-12T08:21:17;98467.34;;;14.70;41.11
59063;BME280;44851;45.648;9.004;2023-04-12T08:23:42;98476.56;;;14.66;41.42
59063;BME280;44851;45.648;9.004;2023-04-12T08:26:08;98481.72;;;14.36;39.78
59063;BME280;44851;45.648;9.004;2023-04-12T08:28:34;98476.50;;;14.36;40.84
59063;BME280;44851;45.648;9.004;2023-04-12T08:30:59;98475.19;;;14.32;41.44
59063;BME280;44851;45.648;9.004;2023-04-12T08:33:25;98473.81;;;14.44;41.39
59063;BME280;44851;45.648;9.004;2023-04-12T08:35:51;98469.19;;;14.46;41.30
59063;BME280;44851;45.648;9.004;2023-04-12T08:38:17;98459.72;;;14.45;39.83
59063;BME280;44851;45.648;9.004;2023-04-12T08:40:42;98471.09;;;14.52;40.24
59063;BME280;44851;45.648;9.004;2023-04-12T08:43:10;98461.53;;;14.60;40.49
59063;BME280;44851;45.648;9.004;2023-04-12T08:45:36;98454.50;;;14.75;41.48
59063;BME280;44851;45.648;9.004;2023-04-12T08:48:03;98446.72;;;14.67;40.43
59063;BME280;44851;45.648;9.004;2023-04-12T08:50:30;98450.69;;;14.63;39.88
59063;BME280;44851;45.648;9.004;2023-04-12T08:52:57;98437.53;;;14.33;39.77
59063;BME280;44851;45.648;9.004;2023-04-12T08:55:23;98435.09;;;14.46;40.44
59063;BME280;44851;45.648;9.004;2023-04-12T08:57:54;98431.59;;;14.69;41.12
59063;BME280;44851;45.648;9.004;2023-04-12T09:00:22;98432.94;;;14.65;41.22
59063;BME280;44851;45.648;9.004;2023-04-12T09:02:48;98440.28;;;14.69;41.37
59063;BME280;44851;45.648;9.004;2023-04-12T09:05:14;98441.47;;;14.67;40.95
59063;BME280;44851;45.648;9.004;2023-04-12T09:07:41;98445.66;;;14.76;40.56
59063;BME280;44851;45.648;9.004;2023-04-12T09:10:07;98433.94;;;14.64;39.63
59063;BME280;44851;45.648;9.004;2023-04-12T09:12:33;98437.50;;;14.71;41.33
59063;BME280;44851;45.648;9.004;2023-04-12T09:15:09;98434.69;;;14.72;40.16
59063;BME280;44851;45.648;9.004;2023-04-12T09:17:37;98426.09;;;14.64;41.16
59063;BME280;44851;45.648;9.004;2023-04-12T09:20:21;98422.91;;;14.53;40.28
59063;BME280;44851;45.648;9.004;2023-04-12T09:22:48;98424.28;;;14.79;41.82
59063;BME280;44851;45.648;9.004;2023-04-12T09:25:14;98422.75;;;14.85;41.42
59063;BME280;44851;45.648;9.004;2023-04-12T09:27:51;98419.69;;;14.81;39.66
59063;BME280;44851;45.648;9.004;2023-04-12T09:30:18;98426.63;;;14.74;39.78
59063;BME280;44851;45.648;9.004;2023-04-12T09:32:45;98412.06;;;14.86;40.03
59063;BME280;44851;45.648;9.004;2023-04-12T09:35:10;98423.56;;;14.85;41.09
59063;BME280;44851;45.648;9.004;2023-04-12T09:37:36;98415.78;;;14.77;40.07
59063;BME280;44851;45.648;9.004;2023-04-12T09:40:06;98418.16;;;14.72;40.01
59063;BME280;44851;45.648;9.004;2023-04-12T09:42:32;98421.84;;;14.77;41.37
59063;BME280;44851;45.648;9.004;2023-04-12T09:44:59;98422.75;;;14.85;40.55
59063;BME280;44851;45.648;9.004;2023-04-12T09:47:46;98417.41;;;14.78;41.08
59063;BME280;44851;45.648;9.004;2023-04-12T09:50:28;98428.25;;;14.75;39.36
59063;BME280;44851;45.648;9.004;2023-04-12T09:52:55;98420.31;;;14.83;40.67
59063;BME280;44851;45.648;9.004;2023-04-12T09:55:22;98426.84;;;14.87;40.37
59063;BME280;44851;45.648;9.004;2023-04-12T09:57:49;98421.41;;;14.89;41.38
59063;BME280;44851;45.648;9.004;2023-04-12T10:00:16;98423.66;;;14.62;39.44
59063;BME280;44851;45.648;9.004;2023-04-12T10:02:44;98411.63;;;14.83;39.47
59063;BME280;44851;45.648;9.004;2023-04-12T10:05:11;98418.25;;;14.93;40.08
59063;BME280;44851;45.648;9.004;2023-04-12T10:07:40;98415.63;;;15.08;39.01
59063;BME280;44851;45.648;9.004;2023-04-12T10:10:07;98409.53;;;15.22;40.58
59063;BME280;44851;45.648;9.004;2023-04-12T10:12:35;98410.53;;;15.36;40.94
59063;BME280;44851;45.648;9.004;2023-04-12T10:15:05;98396.75;;;15.34;41.58
59063;BME280;44851;45.648;9.004;2023-04-12T10:17:50;98395.50;;;15.30;39.52
59063;BME280;44851;45.648;9.004;2023-04-12T10:20:17;98392.88;;;15.15;38.69
59063;BME280;44851;45.648;9.004;2023-04-12T10:22:50;98390.44;;;15.14;40.82
59063;BME280;44851;45.648;9.004;2023-04-12T10:25:21;98387.69;;;15.22;39.91
59063;BME280;44851;45.648;9.004;2023-04-12T10:27:47;98380.03;;;15.35;39.92
59063;BME280;44851;45.648;9.004;2023-04-12T10:33:11;98359.63;;;15.37;40.33
59063;BME280;44851;45.648;9.004;2023-04-12T10:38:24;98352.31;;;15.75;38.29
59063;BME280;44851;45.648;9.004;2023-04-12T10:41:21;98348.06;;;15.53;38.01
59063;BME280;44851;45.648;9.004;2023-04-12T10:43:47;98347.00;;;15.69;37.38
59063;BME280;44851;45.648;9.004;2023-04-12T10:49:15;98336.09;;;16.15;40.17
59063;BME280;44851;45.648;9.004;2023-04-12T10:56:54;98347.09;;;16.25;40.37
59063;BME280;44851;45.648;9.004;2023-04-12T10:59:21;98343.31;;;16.34;40.09
59063;BME280;44851;45.648;9.004;2023-04-12T11:02:09;98335.03;;;16.09;37.83
59063;BME280;44851;45.648;9.004;2023-04-12T11:04:35;98342.38;;;16.42;40.84
59063;BME280;44851;45.648;9.004;2023-04-12T11:07:08;98339.84;;;16.27;37.90
59063;BME280;44851;45.648;9.004;2023-04-12T11:14:37;98337.03;;;16.35;38.36
59063;BME280;44851;45.648;9.004;2023-04-12T11:19:45;98324.31;;;16.11;38.03
59063;BME280;44851;45.648;9.004;2023-04-12T11:22:16;98312.94;;;16.03;38.20
59063;BME280;44851;45.648;9.004;2023-04-12T11:24:43;98315.59;;;16.31;38.98
59063;BME280;44851;45.648;9.004;2023-04-12T11:27:09;98311.94;;;16.32;38.55
59063;BME280;44851;45.648;9.004;2023-04-12T11:29:35;98309.69;;;16.57;37.79
59063;BME280;44851;45.648;9.004;2023-04-12T11:32:05;98310.13;;;16.68;39.60
59063;BME280;44851;45.648;9.004;2023-04-12T11:34:35;98306.72;;;16.74;37.94
59063;BME280;44851;45.648;9.004;2023-04-12T11:37:02;98302.06;;;16.82;38.33
59063;BME280;44851;45.648;9.004;2023-04-12T11:39:32;98313.72;;;16.60;36.15
59063;BME280;44851;45.648;9.004;2023-04-12T11:41:58;98309.91;;;16.63;38.35
59063;BME280;44851;45.648;9.004;2023-04-12T11:44:26;98308.66;;;16.58;38.05
59063;BME280;44851;45.648;9.004;2023-04-12T11:46:51;98293.88;;;16.57;37.38
59063;BME280;44851;45.648;9.004;2023-04-12T11:49:18;98292.50;;;16.27;37.86
59063;BME280;44851;45.648;9.004;2023-04-12T11:51:44;98286.69;;;16.38;39.00
59063;BME280;44851;45.648;9.004;2023-04-12T11:54:13;98282.03;;;16.40;36.82
59063;BME280;44851;45.648;9.004;2023-04-12T11:56:40;98273.25;;;16.61;37.16
59063;BME280;44851;45.648;9.004;2023-04-12T11:59:06;98275.34;;;16.79;37.14
59063;BME280;44851;45.648;9.004;2023-04-12T12:01:35;98268.50;;;16.91;35.57
59063;BME280;44851;45.648;9.004;2023-04-12T12:04:02;98268.59;;;17.11;36.12
59063;BME280;44851;45.648;9.004;2023-04-12T12:06:28;98268.19;;;17.21;35.51
59063;BME280;44851;45.648;9.004;2023-04-12T12:08:54;98260.88;;;17.09;36.86
59063;BME280;44851;45.648;9.004;2023-04-12T12:11:20;98255.69;;;17.49;37.42
59063;BME280;44851;45.648;9.004;2023-04-12T12:13:53;98254.88;;;17.62;35.26
59063;BME280;44851;45.648;9.004;2023-04-12T12:16:26;98252.44;;;17.54;35.13
59063;BME280;44851;45.648;9.004;2023-04-12T12:18:53;98257.78;;;16.93;34.62
59063;BME280;44851;45.648;9.004;2023-04-12T12:21:19;98245.13;;;17.23;36.24
59063;BME280;44851;45.648;9.004;2023-04-12T12:23:45;98243.88;;;17.19;35.83
59063;BME280;44851;45.648;9.004;2023-04-12T12:26:25;98243.09;;;17.51;38.42
59063;BME280;44851;45.648;9.004;2023-04-12T12:28:53;98248.78;;;17.61;35.11
59063;BME280;44851;45.648;9.004;2023-04-12T12:31:21;98254.88;;;17.55;36.38
59063;BME280;44851;45.648;9.004;2023-04-12T12:33:47;98249.19;;;17.52;36.16
59063;BME280;44851;45.648;9.004;2023-04-12T12:36:12;98256.50;;;17.70;36.85
59063;BME280;44851;45.648;9.004;2023-04-12T12:38:41;98248.78;;;17.48;35.74
59063;BME280;44851;45.648;9.004;2023-04-12T12:43:47;98246.75;;;17.50;36.16
59063;BME280;44851;45.648;9.004;2023-04-12T12:46:13;98240.28;;;17.59;36.58
59063;BME280;44851;45.648;9.004;2023-04-12T12:48:40;98242.28;;;17.51;35.65
59063;BME280;44851;45.648;9.004;2023-04-12T12:51:07;98233.78;;;17.55;36.57
59063;BME280;44851;45.648;9.004;2023-04-12T12:53:32;98222.03;;;17.51;36.61
59063;BME280;44851;45.648;9.004;2023-04-12T12:55:57;98217.38;;;17.40;36.25
59063;BME280;44851;45.648;9.004;2023-04-12T12:58:23;98214.53;;;17.42;36.68
59063;BME280;44851;45.648;9.004;2023-04-12T13:00:48;98208.44;;;17.41;36.67
59063;BME280;44851;45.648;9.004;2023-04-12T13:03:14;98206.03;;;17.46;37.16
59063;BME280;44851;45.648;9.004;2023-04-12T13:05:39;98199.75;;;17.41;36.60
59063;BME280;44851;45.648;9.004;2023-04-12T13:08:05;98192.84;;;17.46;36.75
59063;BME280;44851;45.648;9.004;2023-04-12T13:10:30;98187.38;;;17.54;36.98
59063;BME280;44851;45.648;9.004;2023-04-12T13:12:56;98189.19;;;17.47;38.04
59063;BME280;44851;45.648;9.004;2023-04-12T13:15:22;98185.97;;;17.45;37.20
59063;BME280;44851;45.648;9.004;2023-04-12T13:17:49;98194.25;;;17.35;38.02
59063;BME280;44851;45.648;9.004;2023-04-12T13:20:15;98195.69;;;17.25;37.75
59063;BME280;44851;45.648;9.004;2023-04-12T13:22:40;98180.28;;;17.35;38.90
59063;BME280;44851;45.648;9.004;2023-04-12T13:25:06;98175.41;;;17.25;37.53
59063;BME280;44851;45.648;9.004;2023-04-12T13:27:32;98179.06;;;17.31;37.41
59063;BME280;44851;45.648;9.004;2023-04-12T13:29:57;98173.19;;;17.29;36.66
59063;BME280;44851;45.648;9.004;2023-04-12T13:32:22;98164.44;;;17.08;36.14
59063;BME280;44851;45.648;9.004;2023-04-12T13:34:48;98163.88;;;17.33;36.90